createdAt,value
2023-02-24T00:04:52.121Z,40.55
2023-02-24T00:09:54.230Z,43.95
2023-02-24T00:14:56.467Z,44.53
2023-02-24T00:19:58.614Z,42.42
2023-02-24T00:25:02.915Z,40.60
2023-02-24T00:30:06.664Z,39.42
2023-02-24T00:35:09.600Z,33.45
2023-02-24T00:40:12.428Z,35.95
2023-02-24T00:45:17.055Z,36.58
2023-02-24T00:50:19.270Z,35.65
2023-02-24T00:55:23.611Z,37.72
2023-02-24T01:00:26.095Z,31.92
2023-02-24T01:05:28.764Z,35.50
2023-02-24T01:10:30.983Z,37.83
2023-02-24T01:15:33.052Z,32.72
2023-02-24T01:20:35.730Z,38.22
2023-02-24T01:25:39.241Z,38.75
2023-02-24T01:30:43.331Z,37.92
2023-02-24T01:35:45.877Z,44.15
2023-02-24T01:40:56.793Z,38.15
2023-02-24T01:45:59.081Z,38.55
2023-02-24T01:51:02.110Z,35.40
2023-02-24T01:56:05.901Z,34.85
2023-02-24T02:01:10.466Z,36.13
2023-02-24T02:06:14.292Z,37.58
2023-02-24T02:11:23.906Z,40.38
2023-02-24T02:16:51.785Z,34.78
2023-02-24T02:22:05.864Z,34.67
2023-02-24T02:27:29.764Z,34.25
2023-02-24T02:32:57.588Z,32.70
2023-02-24T02:38:05.505Z,26.85
2023-02-24T02:43:32.456Z,33.22
2023-02-24T02:48:55.983Z,34.95
2023-02-24T02:54:16.783Z,34.60
2023-02-24T02:59:23.681Z,30.30
2023-02-24T03:04:26.912Z,30.27
2023-02-24T03:09:37.384Z,31.48
2023-02-24T03:14:46.403Z,33.63
2023-02-24T03:20:00.435Z,35.73
2023-02-24T03:25:05.492Z,29.55
2023-02-24T03:30:21.590Z,34.35
2023-02-24T03:35:28.151Z,31.08
2023-02-24T03:40:34.006Z,30.77
2023-02-24T03:45:38.631Z,34.50
2023-02-24T03:50:42.594Z,29.90
2023-02-24T03:56:00.838Z,36.25
2023-02-24T04:01:15.172Z,33.53
2023-02-24T04:06:59.958Z,31.58
2023-02-24T04:12:32.294Z,31.90
2023-02-24T04:17:42.959Z,35.20
2023-02-24T04:22:50.026Z,28.15
2023-02-24T04:27:54.897Z,31.67
2023-02-24T04:32:57.100Z,37.67
2023-02-24T04:37:59.658Z,28.10
2023-02-24T04:43:02.164Z,35.40
2023-02-24T04:48:04.409Z,35.67
2023-02-24T04:53:10.329Z,37.13
2023-02-24T04:58:19.570Z,32.40
2023-02-24T05:03:28.756Z,35.13
2023-02-24T05:08:31.555Z,36.15
2023-02-24T05:13:34.108Z,35.15
2023-02-24T05:18:37.507Z,32.63
2023-02-24T05:23:44.727Z,34.95
2023-02-24T05:28:52.510Z,38.78
2023-02-24T05:33:58.022Z,39.50
2023-02-24T05:39:07.010Z,37.08
2023-02-24T05:44:14.138Z,35.50
2023-02-24T05:49:24.248Z,38.25
2023-02-24T05:54:32.123Z,41.85
2023-02-24T05:59:35.214Z,37.45
2023-02-24T06:04:51.781Z,39.08
2023-02-24T06:09:57.645Z,39.65
2023-02-24T06:15:00.448Z,38.72
2023-02-24T06:20:05.526Z,40.30
2023-02-24T06:25:08.716Z,53.45
2023-02-24T06:30:11.717Z,51.25
2023-02-24T06:35:13.937Z,55.03
2023-02-24T06:40:16.482Z,54.47
2023-02-24T06:45:19.124Z,54.65
2023-02-24T06:50:22.055Z,47.17
2023-02-24T06:55:27.391Z,53.17
2023-02-24T07:00:41.412Z,50.50
2023-02-24T07:05:54.621Z,59.15
2023-02-24T07:11:00.157Z,59.85
2023-02-24T07:16:07.477Z,55.65
2023-02-24T07:21:12.943Z,64.75
2023-02-24T07:26:17.784Z,59.40
2023-02-24T07:31:23.350Z,49.70
2023-02-24T07:36:30.497Z,59.13
2023-02-24T07:41:33.118Z,51.42
2023-02-24T07:46:35.536Z,51.03
2023-02-24T07:51:37.786Z,58.13
2023-02-24T07:56:46.378Z,61.17
2023-02-24T08:01:52.103Z,52.92
2023-02-24T08:06:58.939Z,47.30
2023-02-24T08:12:01.698Z,45.53
2023-02-24T08:17:05.793Z,39.35
2023-02-24T08:22:25.819Z,39.47
2023-02-24T08:27:32.939Z,40.10
2023-02-24T08:32:38.217Z,37.38
2023-02-24T08:37:41.098Z,34.47
2023-02-24T08:42:43.213Z,43.33
2023-02-24T08:47:45.693Z,43.42
2023-02-24T08:52:47.804Z,42.58
2023-02-24T08:57:53.672Z,36.75
2023-02-24T09:02:56.508Z,32.40
2023-02-24T09:07:58.668Z,30.88
2023-02-24T09:13:01.572Z,33.78
2023-02-24T09:18:07.871Z,23.33
2023-02-24T09:23:20.456Z,30.13
2023-02-24T09:28:27.907Z,28.02
2023-02-24T09:33:42.143Z,36.42
2023-02-24T09:39:02.244Z,26.83
2023-02-24T09:49:24.993Z,27.83
2023-02-24T09:54:35.675Z,29.45
2023-02-24T10:00:25.211Z,32.45
2023-02-24T10:05:38.909Z,35.95
2023-02-24T10:11:01.071Z,32.13
2023-02-24T10:16:07.402Z,24.08
2023-02-24T10:21:31.972Z,20.13
2023-02-24T10:26:59.626Z,25.02
2023-02-24T10:32:19.123Z,30.45
2023-02-24T10:37:29.224Z,25.48
2023-02-24T10:42:34.894Z,19.52
2023-02-24T10:47:37.070Z,29.63
2023-02-24T10:52:53.631Z,24.40
2023-02-24T10:58:16.186Z,22.65
2023-02-24T11:03:36.668Z,23.73
2023-02-24T11:08:55.053Z,21.17
2023-02-24T11:14:22.424Z,23.92
2023-02-24T11:19:29.786Z,19.17
2023-02-24T11:24:32.361Z,21.65
2023-02-24T11:30:01.615Z,16.40
2023-02-24T11:35:21.393Z,16.63
2023-02-24T11:45:40.128Z,17.75
2023-02-24T11:50:47.241Z,16.65
2023-02-24T11:55:57.431Z,16.38
2023-02-24T12:01:10.606Z,17.40
2023-02-24T12:06:31.044Z,15.13
2023-02-24T12:11:41.207Z,17.05
2023-02-24T12:16:48.340Z,17.40
2023-02-24T12:22:16.099Z,17.95
2023-02-24T12:27:21.221Z,14.05
2023-02-24T12:32:43.224Z,15.60
2023-02-24T12:38:19.071Z,9.50
2023-02-24T12:43:26.878Z,15.18
2023-02-24T12:49:01.341Z,13.45
2023-02-24T12:54:14.446Z,11.90
2023-02-24T12:59:22.875Z,11.65
2023-02-24T13:05:04.111Z,10.97
2023-02-24T13:10:14.933Z,10.73
2023-02-24T13:15:26.139Z,12.57
2023-02-24T13:20:34.389Z,11.57
2023-02-24T13:25:37.905Z,11.73
2023-02-24T13:30:44.232Z,13.07
2023-02-24T13:35:49.467Z,12.65
2023-02-24T13:40:51.941Z,10.25
2023-02-24T13:45:58.300Z,10.98
2023-02-24T13:51:32.244Z,9.85
2023-02-24T13:56:43.244Z,9.38
2023-02-24T14:01:58.106Z,9.98
2023-02-24T14:07:04.329Z,12.80
2023-02-24T14:12:19.700Z,10.27
2023-02-24T14:17:29.951Z,10.00
2023-02-24T14:22:32.927Z,10.30
2023-02-24T14:27:35.649Z,10.85
2023-02-24T14:32:37.912Z,9.40
2023-02-24T14:37:40.220Z,11.10
2023-02-24T14:42:50.122Z,12.05
2023-02-24T14:47:54.084Z,14.75
2023-02-24T14:53:10.265Z,14.93
2023-02-24T14:58:18.109Z,13.45
2023-02-24T15:03:29.855Z,11.63
2023-02-24T15:08:43.638Z,12.63
2023-02-24T15:13:56.380Z,12.40
2023-02-24T15:19:01.669Z,12.07
2023-02-24T15:24:13.932Z,12.07
2023-02-24T15:29:23.218Z,11.88
2023-02-24T15:34:37.036Z,11.90
2023-02-24T15:39:43.136Z,11.52
2023-02-24T15:45:25.784Z,15.07
2023-02-24T15:50:30.435Z,22.42
2023-02-24T15:55:33.133Z,15.88
2023-02-24T16:00:35.492Z,17.92
2023-02-24T16:05:38.190Z,18.77
2023-02-24T16:10:41.169Z,17.13
2023-02-24T16:15:45.889Z,19.38
2023-02-24T16:20:54.906Z,19.77
2023-02-24T16:25:59.571Z,28.20
2023-02-24T16:31:02.874Z,19.92
2023-02-24T16:36:12.332Z,22.08
2023-02-24T16:41:14.484Z,37.63
2023-02-24T16:46:20.424Z,27.88
2023-02-24T16:51:23.184Z,30.40
2023-02-24T16:56:25.328Z,28.33
2023-02-24T17:01:27.522Z,26.75
2023-02-24T17:06:30.042Z,27.50
2023-02-24T17:11:33.194Z,28.20
2023-02-24T17:16:39.788Z,31.13
2023-02-24T17:21:44.728Z,28.80
2023-02-24T17:26:47.233Z,32.63
2023-02-24T17:31:49.517Z,25.77
2023-02-24T17:36:51.890Z,32.90
2023-02-24T17:41:54.115Z,32.55
2023-02-24T17:46:56.396Z,33.22
2023-02-24T17:51:58.588Z,40.67
2023-02-24T17:57:00.862Z,38.17
2023-02-24T18:02:03.598Z,33.60
2023-02-24T18:07:05.745Z,35.40
2023-02-24T18:12:07.966Z,39.55
2023-02-24T18:17:10.115Z,44.58
2023-02-24T18:22:12.289Z,46.25
2023-02-24T18:27:14.514Z,36.28
2023-02-24T18:32:16.904Z,36.83
2023-02-24T18:37:19.330Z,40.13
2023-02-24T18:42:21.494Z,40.15
2023-02-24T18:47:23.654Z,39.05
2023-02-24T18:52:25.824Z,40.28
2023-02-24T18:57:28.135Z,44.42
2023-02-24T19:02:30.568Z,43.55
2023-02-24T19:07:32.834Z,47.65
2023-02-24T19:12:34.934Z,37.75
2023-02-24T19:17:37.110Z,42.33
2023-02-24T19:22:39.251Z,52.53
2023-02-24T19:27:41.447Z,41.05
2023-02-24T19:32:43.738Z,50.00
2023-02-24T19:37:49.281Z,54.08
2023-02-24T19:42:53.385Z,51.08
2023-02-24T19:47:55.465Z,50.53
2023-02-24T19:52:57.633Z,69.00
2023-02-24T19:58:00.150Z,70.20
2023-02-24T20:03:02.244Z,65.22
2023-02-24T20:08:04.534Z,67.97
2023-02-24T20:13:07.275Z,69.10
2023-02-24T20:18:09.380Z,62.50
2023-02-24T20:23:11.529Z,67.95
2023-02-24T20:28:13.744Z,62.92
2023-02-24T20:33:16.688Z,63.97
2023-02-24T20:38:18.855Z,65.47
2023-02-24T20:43:21.379Z,63.75
2023-02-24T20:48:23.735Z,58.97
2023-02-24T20:53:25.862Z,67.40
2023-02-24T20:58:28.024Z,59.88
2023-02-24T21:03:30.127Z,65.68
2023-02-24T21:08:32.264Z,69.50
2023-02-24T21:13:43.159Z,64.95
2023-02-24T21:18:47.117Z,59.80
2023-02-24T21:23:50.788Z,68.95
2023-02-24T21:28:58.020Z,75.60
2023-02-24T21:34:00.236Z,73.07
2023-02-24T21:39:02.448Z,67.05
2023-02-24T21:44:05.371Z,60.35
2023-02-24T21:49:08.244Z,53.55
2023-02-24T21:54:12.740Z,60.10
2023-02-24T21:59:14.966Z,43.90
2023-02-24T22:04:19.243Z,49.45
2023-02-24T22:09:21.485Z,50.65
2023-02-24T22:14:23.675Z,45.03
2023-02-24T22:19:25.774Z,49.20
2023-02-24T22:24:27.913Z,57.13
2023-02-24T22:29:30.109Z,54.80
2023-02-24T22:34:32.270Z,54.67
2023-02-24T22:39:34.764Z,53.65
2023-02-24T22:44:38.209Z,51.55
2023-02-24T22:49:40.302Z,54.38
2023-02-24T22:54:43.004Z,50.63
2023-02-24T22:59:45.632Z,52.30
2023-02-24T23:04:47.811Z,50.95
2023-02-24T23:09:53.259Z,47.70
2023-02-24T23:14:55.465Z,56.83
2023-02-24T23:19:59.015Z,58.75
2023-02-24T23:25:01.644Z,53.00
2023-02-24T23:30:04.407Z,60.30
2023-02-24T23:35:07.082Z,47.85
2023-02-24T23:40:11.294Z,52.25
2023-02-24T23:45:13.425Z,45.83
2023-02-24T23:50:15.578Z,49.47
2023-02-24T23:55:17.853Z,48.85
